sensor_id;sensor_type;location;lat;lon;timestamp;P1;durP1;ratioP1;P2;durP2;ratioP2
13171;SDS011;6651;53.200;10.432;2023-05-10T00:02:25;4.47;;;3.60;;
13171;SDS011;6651;53.200;10.432;2023-05-10T00:04:51;6.18;;;3.45;;
13171;SDS011;6651;53.200;10.432;2023-05-10T00:07:18;4.55;;;3.55;;
13171;SDS011;6651;53.200;10.432;2023-05-10T00:09:44;5.70;;;3.42;;
13171;SDS011;6651;53.200;10.432;2023-05-10T00:12:10;4.90;;;3.65;;
13171;SDS011;6651;53.200;10.432;2023-05-10T00:14:36;4.63;;;3.28;;
13171;SDS011;6651;53.200;10.432;2023-05-10T00:17:02;7.00;;;3.85;;
13171;SDS011;6651;53.200;10.432;2023-05-10T00:19:28;4.68;;;3.75;;
13171;SDS011;6651;53.200;10.432;2023-05-10T00:21:54;4.78;;;3.40;;
13171;SDS011;6651;53.200;10.432;2023-05-10T00:24:20;5.45;;;3.67;;
13171;SDS011;6651;53.200;10.432;2023-05-10T00:26:46;5.13;;;3.47;;
13171;SDS011;6651;53.200;10.432;2023-05-10T00:29:12;4.97;;;3.90;;
13171;SDS011;6651;53.200;10.432;2023-05-10T00:31:38;7.05;;;3.72;;
13171;SDS011;6651;53.200;10.432;2023-05-10T00:34:04;5.60;;;3.55;;
13171;SDS011;6651;53.200;10.432;2023-05-10T00:36:30;7.32;;;4.10;;
13171;SDS011;6651;53.200;10.432;2023-05-10T00:38:56;8.30;;;3.90;;
13171;SDS011;6651;53.200;10.432;2023-05-10T00:41:22;4.85;;;3.90;;
13171;SDS011;6651;53.200;10.432;2023-05-10T00:43:48;4.10;;;3.70;;
13171;SDS011;6651;53.200;10.432;2023-05-10T00:46:14;5.45;;;4.00;;
13171;SDS011;6651;53.200;10.432;2023-05-10T00:48:41;4.60;;;3.90;;
13171;SDS011;6651;53.200;10.432;2023-05-10T00:51:08;9.98;;;4.03;;
13171;SDS011;6651;53.200;10.432;2023-05-10T00:53:34;7.38;;;3.88;;
13171;SDS011;6651;53.200;10.432;2023-05-10T00:56:00;6.68;;;4.10;;
13171;SDS011;6651;53.200;10.432;2023-05-10T00:58:28;4.68;;;3.83;;
13171;SDS011;6651;53.200;10.432;2023-05-10T01:00:55;6.90;;;3.75;;
13171;SDS011;6651;53.200;10.432;2023-05-10T01:03:22;5.70;;;3.50;;
13171;SDS011;6651;53.200;10.432;2023-05-10T01:05:48;5.30;;;3.90;;
13171;SDS011;6651;53.200;10.432;2023-05-10T01:08:14;6.88;;;3.88;;
13171;SDS011;6651;53.200;10.432;2023-05-10T01:10:41;6.22;;;3.83;;
13171;SDS011;6651;53.200;10.432;2023-05-10T01:13:07;6.38;;;4.10;;
13171;SDS011;6651;53.200;10.432;2023-05-10T01:15:33;7.70;;;4.28;;
13171;SDS011;6651;53.200;10.432;2023-05-10T01:18:00;6.28;;;4.00;;
13171;SDS011;6651;53.200;10.432;2023-05-10T01:20:26;5.95;;;4.00;;
13171;SDS011;6651;53.200;10.432;2023-05-10T01:30:33;6.88;;;3.97;;
13171;SDS011;6651;53.200;10.432;2023-05-10T01:33:11;4.53;;;3.83;;
13171;SDS011;6651;53.200;10.432;2023-05-10T01:40:55;6.88;;;4.30;;
13171;SDS011;6651;53.200;10.432;2023-05-10T01:43:28;6.75;;;3.80;;
13171;SDS011;6651;53.200;10.432;2023-05-10T01:48:22;5.38;;;3.60;;
13171;SDS011;6651;53.200;10.432;2023-05-10T01:50:48;8.63;;;4.30;;
13171;SDS011;6651;53.200;10.432;2023-05-10T01:53:17;6.82;;;3.95;;
13171;SDS011;6651;53.200;10.432;2023-05-10T01:55:46;7.45;;;4.40;;
13171;SDS011;6651;53.200;10.432;2023-05-10T01:58:17;5.95;;;4.28;;
13171;SDS011;6651;53.200;10.432;2023-05-10T02:00:44;4.95;;;3.95;;
13171;SDS011;6651;53.200;10.432;2023-05-10T02:03:10;4.72;;;3.80;;
13171;SDS011;6651;53.200;10.432;2023-05-10T02:05:37;4.07;;;3.65;;
13171;SDS011;6651;53.200;10.432;2023-05-10T02:08:07;6.28;;;3.70;;
13171;SDS011;6651;53.200;10.432;2023-05-10T02:10:34;8.45;;;3.90;;
13171;SDS011;6651;53.200;10.432;2023-05-10T02:13:01;5.63;;;3.85;;
13171;SDS011;6651;53.200;10.432;2023-05-10T02:15:27;5.20;;;3.92;;
13171;SDS011;6651;53.200;10.432;2023-05-10T02:17:54;7.22;;;3.90;;
13171;SDS011;6651;53.200;10.432;2023-05-10T02:20:21;4.97;;;3.50;;
13171;SDS011;6651;53.200;10.432;2023-05-10T02:22:48;7.10;;;4.15;;
13171;SDS011;6651;53.200;10.432;2023-05-10T02:25:14;4.60;;;3.63;;
13171;SDS011;6651;53.200;10.432;2023-05-10T02:27:41;4.13;;;3.72;;
13171;SDS011;6651;53.200;10.432;2023-05-10T02:30:08;7.75;;;4.05;;
13171;SDS011;6651;53.200;10.432;2023-05-10T02:32:35;4.70;;;4.00;;
13171;SDS011;6651;53.200;10.432;2023-05-10T02:35:02;4.60;;;3.70;;
13171;SDS011;6651;53.200;10.432;2023-05-10T02:37:29;5.28;;;4.00;;
13171;SDS011;6651;53.200;10.432;2023-05-10T02:39:55;5.50;;;4.00;;
13171;SDS011;6651;53.200;10.432;2023-05-10T02:42:23;5.85;;;4.07;;
13171;SDS011;6651;53.200;10.432;2023-05-10T02:44:50;5.25;;;4.15;;
13171;SDS011;6651;53.200;10.432;2023-05-10T02:47:17;4.75;;;3.58;;
13171;SDS011;6651;53.200;10.432;2023-05-10T02:49:43;5.25;;;4.07;;
13171;SDS011;6651;53.200;10.432;2023-05-10T02:52:09;5.65;;;3.70;;
13171;SDS011;6651;53.200;10.432;2023-05-10T02:54:45;5.35;;;4.15;;
13171;SDS011;6651;53.200;10.432;2023-05-10T02:57:14;6.97;;;4.25;;
13171;SDS011;6651;53.200;10.432;2023-05-10T02:59:43;5.53;;;4.07;;
13171;SDS011;6651;53.200;10.432;2023-05-10T03:02:10;6.90;;;4.13;;
13171;SDS011;6651;53.200;10.432;2023-05-10T03:04:36;6.65;;;4.20;;
13171;SDS011;6651;53.200;10.432;2023-05-10T03:07:02;7.10;;;4.40;;
13171;SDS011;6651;53.200;10.432;2023-05-10T03:09:28;5.93;;;4.38;;
13171;SDS011;6651;53.200;10.432;2023-05-10T03:12:04;7.30;;;4.18;;
13171;SDS011;6651;53.200;10.432;2023-05-10T03:19:54;6.07;;;4.25;;
13171;SDS011;6651;53.200;10.432;2023-05-10T03:22:37;6.43;;;4.72;;
13171;SDS011;6651;53.200;10.432;2023-05-10T03:25:06;5.82;;;4.20;;
13171;SDS011;6651;53.200;10.432;2023-05-10T03:27:33;7.05;;;4.32;;
13171;SDS011;6651;53.200;10.432;2023-05-10T03:30:01;5.97;;;4.18;;
13171;SDS011;6651;53.200;10.432;2023-05-10T03:32:28;6.43;;;4.38;;
13171;SDS011;6651;53.200;10.432;2023-05-10T03:34:56;10.07;;;4.72;;
13171;SDS011;6651;53.200;10.432;2023-05-10T03:37:22;5.55;;;4.35;;
13171;SDS011;6651;53.200;10.432;2023-05-10T03:39:48;5.43;;;4.30;;
13171;SDS011;6651;53.200;10.432;2023-05-10T03:42:14;6.40;;;4.78;;
13171;SDS011;6651;53.200;10.432;2023-05-10T03:44:42;6.47;;;4.20;;
13171;SDS011;6651;53.200;10.432;2023-05-10T03:47:08;6.93;;;4.32;;
13171;SDS011;6651;53.200;10.432;2023-05-10T03:49:34;6.70;;;4.30;;
13171;SDS011;6651;53.200;10.432;2023-05-10T03:52:00;7.97;;;4.50;;
13171;SDS011;6651;53.200;10.432;2023-05-10T03:54:26;5.57;;;4.13;;
13171;SDS011;6651;53.200;10.432;2023-05-10T03:56:52;5.75;;;4.25;;
13171;SDS011;6651;53.200;10.432;2023-05-10T03:59:18;6.05;;;4.15;;
13171;SDS011;6651;53.200;10.432;2023-05-10T04:01:45;7.43;;;4.10;;
13171;SDS011;6651;53.200;10.432;2023-05-10T04:04:10;7.28;;;4.30;;
13171;SDS011;6651;53.200;10.432;2023-05-10T04:06:37;6.00;;;4.13;;
13171;SDS011;6651;53.200;10.432;2023-05-10T04:09:03;6.05;;;4.32;;
13171;SDS011;6651;53.200;10.432;2023-05-10T04:11:29;5.00;;;3.92;;
13171;SDS011;6651;53.200;10.432;2023-05-10T04:13:55;5.72;;;4.40;;
13171;SDS011;6651;53.200;10.432;2023-05-10T04:16:21;5.78;;;4.20;;
13171;SDS011;6651;53.200;10.432;2023-05-10T04:18:47;6.43;;;4.40;;
13171;SDS011;6651;53.200;10.432;2023-05-10T04:21:14;7.90;;;4.40;;
13171;SDS011;6651;53.200;10.432;2023-05-10T04:23:40;6.15;;;4.30;;
13171;SDS011;6651;53.200;10.432;2023-05-10T04:26:06;7.65;;;4.30;;
13171;SDS011;6651;53.200;10.432;2023-05-10T04:28:32;5.32;;;4.18;;
13171;SDS011;6651;53.200;10.432;2023-05-10T04:31:05;6.97;;;4.28;;
13171;SDS011;6651;53.200;10.432;2023-05-10T04:33:31;4.80;;;4.03;;
13171;SDS011;6651;53.200;10.432;2023-05-10T04:35:57;5.07;;;4.47;;
13171;SDS011;6651;53.200;10.432;2023-05-10T04:38:23;7.32;;;3.90;;
13171;SDS011;6651;53.200;10.432;2023-05-10T04:40:50;6.30;;;4.28;;
13171;SDS011;6651;53.200;10.432;2023-05-10T04:43:16;6.38;;;4.38;;
13171;SDS011;6651;53.200;10.432;2023-05-10T04:45:42;5.75;;;4.05;;
13171;SDS011;6651;53.200;10.432;2023-05-10T04:48:08;5.72;;;4.07;;
13171;SDS011;6651;53.200;10.432;2023-05-10T04:50:34;5.63;;;4.35;;
13171;SDS011;6651;53.200;10.432;2023-05-10T04:53:00;6.20;;;4.32;;
13171;SDS011;6651;53.200;10.432;2023-05-10T04:55:26;5.65;;;4.35;;
13171;SDS011;6651;53.200;10.432;2023-05-10T04:57:53;5.80;;;4.07;;
13171;SDS011;6651;53.200;10.432;2023-05-10T05:00:21;5.85;;;4.47;;
13171;SDS011;6651;53.200;10.432;2023-05-10T05:02:47;6.80;;;4.20;;
13171;SDS011;6651;53.200;10.432;2023-05-10T05:05:14;7.55;;;4.28;;
13171;SDS011;6651;53.200;10.432;2023-05-10T05:07:40;4.50;;;4.10;;
13171;SDS011;6651;53.200;10.432;2023-05-10T05:10:06;5.93;;;4.22;;
13171;SDS011;6651;53.200;10.432;2023-05-10T05:12:32;7.40;;;4.53;;
13171;SDS011;6651;53.200;10.432;2023-05-10T05:14:59;6.93;;;4.30;;
13171;SDS011;6651;53.200;10.432;2023-05-10T05:17:25;6.07;;;4.18;;
13171;SDS011;6651;53.200;10.432;2023-05-10T05:19:51;5.40;;;4.20;;
13171;SDS011;6651;53.200;10.432;2023-05-10T05:22:17;7.68;;;4.30;;
13171;SDS011;6651;53.200;10.432;2023-05-10T05:24:44;6.28;;;4.40;;
13171;SDS011;6651;53.200;10.432;2023-05-10T05:27:10;6.10;;;4.13;;
13171;SDS011;6651;53.200;10.432;2023-05-10T05:29:36;7.25;;;4.50;;
13171;SDS011;6651;53.200;10.432;2023-05-10T05:32:02;6.93;;;4.07;;
13171;SDS011;6651;53.200;10.432;2023-05-10T05:34:31;5.75;;;4.05;;
13171;SDS011;6651;53.200;10.432;2023-05-10T05:36:57;6.03;;;4.45;;
13171;SDS011;6651;53.200;10.432;2023-05-10T05:39:23;4.53;;;4.03;;
13171;SDS011;6651;53.200;10.432;2023-05-10T05:41:49;5.90;;;4.20;;
13171;SDS011;6651;53.200;10.432;2023-05-10T05:44:15;5.43;;;4.18;;
13171;SDS011;6651;53.200;10.432;2023-05-10T05:46:41;5.78;;;4.35;;
13171;SDS011;6651;53.200;10.432;2023-05-10T05:49:07;8.07;;;4.30;;
13171;SDS011;6651;53.200;10.432;2023-05-10T05:51:34;6.35;;;4.10;;
13171;SDS011;6651;53.200;10.432;2023-05-10T05:54:00;5.72;;;4.20;;
13171;SDS011;6651;53.200;10.432;2023-05-10T05:56:28;5.45;;;4.05;;
13171;SDS011;6651;53.200;10.432;2023-05-10T05:58:54;6.05;;;3.92;;
13171;SDS011;6651;53.200;10.432;2023-05-10T06:01:20;4.70;;;4.20;;
13171;SDS011;6651;53.200;10.432;2023-05-10T06:03:46;7.25;;;3.95;;
13171;SDS011;6651;53.200;10.432;2023-05-10T06:06:12;5.30;;;4.03;;
13171;SDS011;6651;53.200;10.432;2023-05-10T06:08:38;4.32;;;3.60;;
13171;SDS011;6651;53.200;10.432;2023-05-10T06:11:04;5.03;;;3.83;;
13171;SDS011;6651;53.200;10.432;2023-05-10T06:13:30;5.20;;;4.25;;
13171;SDS011;6651;53.200;10.432;2023-05-10T06:15:57;4.63;;;4.10;;
13171;SDS011;6651;53.200;10.432;2023-05-10T06:18:24;5.82;;;4.00;;
13171;SDS011;6651;53.200;10.432;2023-05-10T06:20:50;4.57;;;3.80;;
13171;SDS011;6651;53.200;10.432;2023-05-10T06:23:16;4.55;;;3.40;;
13171;SDS011;6651;53.200;10.432;2023-05-10T06:25:42;7.40;;;4.20;;
13171;SDS011;6651;53.200;10.432;2023-05-10T06:28:08;6.03;;;4.32;;
13171;SDS011;6651;53.200;10.432;2023-05-10T06:30:35;5.25;;;4.05;;
13171;SDS011;6651;53.200;10.432;2023-05-10T06:33:01;7.97;;;4.05;;
13171;SDS011;6651;53.200;10.432;2023-05-10T06:35:28;6.55;;;3.75;;
13171;SDS011;6651;53.200;10.432;2023-05-10T06:37:54;7.18;;;4.20;;
13171;SDS011;6651;53.200;10.432;2023-05-10T06:40:20;6.50;;;4.00;;
13171;SDS011;6651;53.200;10.432;2023-05-10T06:42:46;5.60;;;4.05;;
13171;SDS011;6651;53.200;10.432;2023-05-10T06:45:13;5.63;;;4.00;;
13171;SDS011;6651;53.200;10.432;2023-05-10T06:47:39;5.00;;;3.55;;
13171;SDS011;6651;53.200;10.432;2023-05-10T06:50:06;5.78;;;4.00;;
13171;SDS011;6651;53.200;10.432;2023-05-10T06:52:33;5.82;;;4.30;;
13171;SDS011;6651;53.200;10.432;2023-05-10T06:55:02;4.28;;;3.80;;
13171;SDS011;6651;53.200;10.432;2023-05-10T06:57:28;6.40;;;4.00;;
13171;SDS011;6651;53.200;10.432;2023-05-10T06:59:54;5.38;;;3.97;;
13171;SDS011;6651;53.200;10.432;2023-05-10T07:02:23;4.45;;;3.95;;
13171;SDS011;6651;53.200;10.432;2023-05-10T07:04:49;5.82;;;4.15;;
13171;SDS011;6651;53.200;10.432;2023-05-10T07:07:16;5.22;;;4.40;;
13171;SDS011;6651;53.200;10.432;2023-05-10T07:09:42;5.47;;;4.32;;
13171;SDS011;6651;53.200;10.432;2023-05-10T07:12:08;7.30;;;3.88;;
13171;SDS011;6651;53.200;10.432;2023-05-10T07:14:34;6.45;;;4.10;;
13171;SDS011;6651;53.200;10.432;2023-05-10T07:17:00;6.20;;;4.05;;
13171;SDS011;6651;53.200;10.432;2023-05-10T07:19:26;5.55;;;4.20;;
13171;SDS011;6651;53.200;10.432;2023-05-10T07:21:54;4.38;;;3.88;;
13171;SDS011;6651;53.200;10.432;2023-05-10T07:24:20;4.28;;;3.83;;
13171;SDS011;6651;53.200;10.432;2023-05-10T07:26:46;4.05;;;3.53;;
13171;SDS011;6651;53.200;10.432;2023-05-10T07:29:12;6.22;;;4.00;;
13171;SDS011;6651;53.200;10.432;2023-05-10T07:31:38;4.50;;;3.90;;
13171;SDS011;6651;53.200;10.432;2023-05-10T07:34:06;6.47;;;3.83;;
13171;SDS011;6651;53.200;10.432;2023-05-10T07:36:32;5.25;;;4.05;;
13171;SDS011;6651;53.200;10.432;2023-05-10T07:38:58;5.60;;;4.05;;
13171;SDS011;6651;53.200;10.432;2023-05-10T07:41:24;4.80;;;4.13;;
13171;SDS011;6651;53.200;10.432;2023-05-10T07:43:51;5.32;;;3.85;;
13171;SDS011;6651;53.200;10.432;2023-05-10T07:46:17;6.85;;;3.80;;
13171;SDS011;6651;53.200;10.432;2023-05-10T07:48:44;5.30;;;3.83;;
13171;SDS011;6651;53.200;10.432;2023-05-10T07:51:10;4.65;;;3.97;;
13171;SDS011;6651;53.200;10.432;2023-05-10T07:53:37;7.63;;;4.28;;
13171;SDS011;6651;53.200;10.432;2023-05-10T07:56:25;5.35;;;4.00;;
13171;SDS011;6651;53.200;10.432;2023-05-10T07:58:54;4.60;;;4.10;;
13171;SDS011;6651;53.200;10.432;2023-05-10T08:01:20;6.50;;;3.95;;
13171;SDS011;6651;53.200;10.432;2023-05-10T08:03:47;4.50;;;3.85;;
13171;SDS011;6651;53.200;10.432;2023-05-10T08:06:13;5.45;;;4.40;;
13171;SDS011;6651;53.200;10.432;2023-05-10T08:08:40;4.65;;;3.97;;
13171;SDS011;6651;53.200;10.432;2023-05-10T08:11:06;5.78;;;4.70;;
13171;SDS011;6651;53.200;10.432;2023-05-10T08:13:32;4.80;;;3.95;;
13171;SDS011;6651;53.200;10.432;2023-05-10T08:15:58;5.72;;;4.10;;
13171;SDS011;6651;53.200;10.432;2023-05-10T08:18:25;6.60;;;3.90;;
13171;SDS011;6651;53.200;10.432;2023-05-10T08:20:51;5.97;;;4.30;;
13171;SDS011;6651;53.200;10.432;2023-05-10T08:23:17;5.90;;;4.00;;
13171;SDS011;6651;53.200;10.432;2023-05-10T08:25:43;5.40;;;4.20;;
13171;SDS011;6651;53.200;10.432;2023-05-10T08:28:09;5.40;;;4.38;;
13171;SDS011;6651;53.200;10.432;2023-05-10T08:30:35;7.07;;;4.10;;
13171;SDS011;6651;53.200;10.432;2023-05-10T08:33:01;7.10;;;4.10;;
13171;SDS011;6651;53.200;10.432;2023-05-10T08:35:27;5.63;;;4.30;;
13171;SDS011;6651;53.200;10.432;2023-05-10T08:37:53;5.85;;;4.68;;
13171;SDS011;6651;53.200;10.432;2023-05-10T08:40:19;5.97;;;4.50;;
13171;SDS011;6651;53.200;10.432;2023-05-10T08:43:08;6.78;;;3.72;;
13171;SDS011;6651;53.200;10.432;2023-05-10T08:45:32;5.97;;;4.57;;
13171;SDS011;6651;53.200;10.432;2023-05-10T08:48:00;5.65;;;4.40;;
13171;SDS011;6651;53.200;10.432;2023-05-10T08:50:27;6.53;;;4.45;;
13171;SDS011;6651;53.200;10.432;2023-05-10T08:52:53;6.53;;;4.50;;
13171;SDS011;6651;53.200;10.432;2023-05-10T08:55:21;5.97;;;4.55;;
13171;SDS011;6651;53.200;10.432;2023-05-10T08:57:48;5.15;;;4.32;;
13171;SDS011;6651;53.200;10.432;2023-05-10T09:00:15;6.15;;;4.40;;
13171;SDS011;6651;53.200;10.432;2023-05-10T09:02:42;6.20;;;4.72;;
13171;SDS011;6651;53.200;10.432;2023-05-10T09:05:10;6.38;;;4.45;;
13171;SDS011;6651;53.200;10.432;2023-05-10T09:07:36;5.75;;;4.18;;
13171;SDS011;6651;53.200;10.432;2023-05-10T09:10:02;5.97;;;4.32;;
13171;SDS011;6651;53.200;10.432;2023-05-10T09:12:29;5.47;;;4.40;;
13171;SDS011;6651;53.200;10.432;2023-05-10T09:14:55;6.00;;;4.32;;
13171;SDS011;6651;53.200;10.432;2023-05-10T09:17:25;4.95;;;4.20;;
13171;SDS011;6651;53.200;10.432;2023-05-10T09:19:57;6.25;;;4.82;;
13171;SDS011;6651;53.200;10.432;2023-05-10T09:22:23;5.20;;;4.30;;
13171;SDS011;6651;53.200;10.432;2023-05-10T09:25:02;6.13;;;4.57;;
13171;SDS011;6651;53.200;10.432;2023-05-10T09:27:28;7.07;;;4.53;;
13171;SDS011;6651;53.200;10.432;2023-05-10T09:29:54;5.65;;;4.30;;
13171;SDS011;6651;53.200;10.432;2023-05-10T09:32:21;7.10;;;4.35;;
13171;SDS011;6651;53.200;10.432;2023-05-10T09:34:47;6.32;;;4.50;;
13171;SDS011;6651;53.200;10.432;2023-05-10T09:37:15;5.55;;;4.60;;
13171;SDS011;6651;53.200;10.432;2023-05-10T09:39:42;4.85;;;4.30;;
13171;SDS011;6651;53.200;10.432;2023-05-10T09:42:08;6.90;;;4.43;;
13171;SDS011;6651;53.200;10.432;2023-05-10T09:44:35;8.43;;;4.68;;
13171;SDS011;6651;53.200;10.432;2023-05-10T09:47:02;5.85;;;4.47;;
13171;SDS011;6651;53.200;10.432;2023-05-10T09:49:28;7.57;;;4.88;;
13171;SDS011;6651;53.200;10.432;2023-05-10T09:52:02;5.32;;;4.47;;
13171;SDS011;6651;53.200;10.432;2023-05-10T09:54:28;7.32;;;4.40;;
13171;SDS011;6651;53.200;10.432;2023-05-10T09:56:54;6.00;;;4.60;;
13171;SDS011;6651;53.200;10.432;2023-05-10T09:59:20;5.75;;;4.45;;
13171;SDS011;6651;53.200;10.432;2023-05-10T10:01:50;5.20;;;4.70;;
13171;SDS011;6651;53.200;10.432;2023-05-10T10:04:16;6.00;;;5.30;;
13171;SDS011;6651;53.200;10.432;2023-05-10T10:06:42;7.28;;;5.00;;
13171;SDS011;6651;53.200;10.432;2023-05-10T10:09:09;7.65;;;5.55;;
13171;SDS011;6651;53.200;10.432;2023-05-10T10:11:35;7.13;;;4.93;;
13171;SDS011;6651;53.200;10.432;2023-05-10T10:14:02;7.53;;;5.30;;
13171;SDS011;6651;53.200;10.432;2023-05-10T10:16:31;6.55;;;5.40;;
13171;SDS011;6651;53.200;10.432;2023-05-10T10:18:57;7.95;;;5.90;;
13171;SDS011;6651;53.200;10.432;2023-05-10T10:21:23;6.75;;;5.68;;
13171;SDS011;6651;53.200;10.432;2023-05-10T10:23:50;6.97;;;5.78;;
13171;SDS011;6651;53.200;10.432;2023-05-10T10:26:17;7.18;;;5.50;;
13171;SDS011;6651;53.200;10.432;2023-05-10T10:31:47;6.60;;;5.50;;
13171;SDS011;6651;53.200;10.432;2023-05-10T10:34:07;6.60;;;5.88;;
13171;SDS011;6651;53.200;10.432;2023-05-10T10:36:44;6.68;;;5.95;;
13171;SDS011;6651;53.200;10.432;2023-05-10T10:39:11;8.95;;;6.43;;
13171;SDS011;6651;53.200;10.432;2023-05-10T10:41:38;7.35;;;5.68;;
13171;SDS011;6651;53.200;10.432;2023-05-10T10:49:37;6.63;;;6.00;;
13171;SDS011;6651;53.200;10.432;2023-05-10T10:54:39;7.60;;;6.60;;
13171;SDS011;6651;53.200;10.432;2023-05-10T10:57:13;7.95;;;6.75;;
13171;SDS011;6651;53.200;10.432;2023-05-10T10:59:43;8.70;;;6.82;;
13171;SDS011;6651;53.200;10.432;2023-05-10T11:02:09;7.53;;;6.72;;
13171;SDS011;6651;53.200;10.432;2023-05-10T11:04:42;8.32;;;7.18;;
13171;SDS011;6651;53.200;10.432;2023-05-10T11:07:17;7.78;;;7.07;;
13171;SDS011;6651;53.200;10.432;2023-05-10T11:09:45;8.00;;;7.20;;
13171;SDS011;6651;53.200;10.432;2023-05-10T11:12:11;8.18;;;7.38;;
13171;SDS011;6651;53.200;10.432;2023-05-10T11:14:37;8.60;;;7.60;;
13171;SDS011;6651;53.200;10.432;2023-05-10T11:17:21;7.70;;;6.90;;
13171;SDS011;6651;53.200;10.432;2023-05-10T11:20:08;8.15;;;7.30;;
13171;SDS011;6651;53.200;10.432;2023-05-10T11:22:50;7.63;;;6.93;;
13171;SDS011;6651;53.200;10.432;2023-05-10T11:25:17;7.70;;;6.93;;
13171;SDS011;6651;53.200;10.432;2023-05-10T11:27:43;8.63;;;7.82;;
13171;SDS011;6651;53.200;10.432;2023-05-10T11:30:10;8.70;;;7.30;;
13171;SDS011;6651;53.200;10.432;2023-05-10T11:32:39;7.78;;;7.07;;
13171;SDS011;6651;53.200;10.432;2023-05-10T11:35:09;8.25;;;6.88;;
13171;SDS011;6651;53.200;10.432;2023-05-10T11:37:35;8.50;;;7.60;;
13171;SDS011;6651;53.200;10.432;2023-05-10T11:40:03;8.20;;;7.18;;
13171;SDS011;6651;53.200;10.432;2023-05-10T11:42:29;7.72;;;6.88;;
13171;SDS011;6651;53.200;10.432;2023-05-10T11:44:55;7.75;;;6.97;;
13171;SDS011;6651;53.200;10.432;2023-05-10T11:47:21;7.97;;;7.18;;
13171;SDS011;6651;53.200;10.432;2023-05-10T11:49:47;9.75;;;7.82;;
13171;SDS011;6651;53.200;10.432;2023-05-10T11:52:14;9.20;;;7.57;;
13171;SDS011;6651;53.200;10.432;2023-05-10T11:54:58;8.10;;;7.30;;
13171;SDS011;6651;53.200;10.432;2023-05-10T11:57:26;8.95;;;8.05;;
13171;SDS011;6651;53.200;10.432;2023-05-10T11:59:53;8.43;;;7.57;;
13171;SDS011;6651;53.200;10.432;2023-05-10T12:02:22;8.38;;;7.45;;
13171;SDS011;6651;53.200;10.432;2023-05-10T12:04:49;8.27;;;7.47;;
13171;SDS011;6651;53.200;10.432;2023-05-10T12:07:15;8.93;;;8.02;;
13171;SDS011;6651;53.200;10.432;2023-05-10T12:09:43;8.38;;;7.57;;
13171;SDS011;6651;53.200;10.432;2023-05-10T12:12:10;9.13;;;7.57;;
13171;SDS011;6651;53.200;10.432;2023-05-10T12:14:36;8.50;;;7.70;;
13171;SDS011;6651;53.200;10.432;2023-05-10T12:17:02;9.35;;;7.30;;
13171;SDS011;6651;53.200;10.432;2023-05-10T12:21:59;8.50;;;7.70;;
13171;SDS011;6651;53.200;10.432;2023-05-10T12:24:26;8.55;;;7.68;;
13171;SDS011;6651;53.200;10.432;2023-05-10T12:26:52;8.48;;;7.78;;
13171;SDS011;6651;53.200;10.432;2023-05-10T12:29:18;8.55;;;7.75;;
13171;SDS011;6651;53.200;10.432;2023-05-10T12:31:48;8.15;;;7.40;;
13171;SDS011;6651;53.200;10.432;2023-05-10T12:34:31;7.60;;;6.90;;
13171;SDS011;6651;53.200;10.432;2023-05-10T12:36:58;7.90;;;7.20;;
13171;SDS011;6651;53.200;10.432;2023-05-10T12:39:24;8.20;;;7.40;;
13171;SDS011;6651;53.200;10.432;2023-05-10T12:41:53;7.68;;;6.88;;
13171;SDS011;6651;53.200;10.432;2023-05-10T12:44:19;7.80;;;7.00;;
13171;SDS011;6651;53.200;10.432;2023-05-10T12:46:45;8.27;;;7.47;;
13171;SDS011;6651;53.200;10.432;2023-05-10T12:49:13;7.70;;;7.00;;
13171;SDS011;6651;53.200;10.432;2023-05-10T12:51:39;8.40;;;7.60;;
13171;SDS011;6651;53.200;10.432;2023-05-10T12:54:05;7.65;;;6.95;;
13171;SDS011;6651;53.200;10.432;2023-05-10T12:56:31;7.35;;;6.65;;
13171;SDS011;6651;53.200;10.432;2023-05-10T12:58:57;7.85;;;7.05;;
13171;SDS011;6651;53.200;10.432;2023-05-10T13:01:23;6.65;;;6.05;;
13171;SDS011;6651;53.200;10.432;2023-05-10T13:03:49;7.45;;;6.75;;
13171;SDS011;6651;53.200;10.432;2023-05-10T13:06:16;7.93;;;6.25;;
13171;SDS011;6651;53.200;10.432;2023-05-10T13:08:42;7.15;;;6.45;;
13171;SDS011;6651;53.200;10.432;2023-05-10T13:11:08;6.88;;;6.28;;
13171;SDS011;6651;53.200;10.432;2023-05-10T13:13:34;7.30;;;6.60;;
13171;SDS011;6651;53.200;10.432;2023-05-10T13:16:00;7.13;;;6.40;;
13171;SDS011;6651;53.200;10.432;2023-05-10T13:18:26;8.38;;;6.07;;
13171;SDS011;6651;53.200;10.432;2023-05-10T13:20:53;6.80;;;6.15;;
13171;SDS011;6651;53.200;10.432;2023-05-10T13:23:19;6.78;;;6.18;;
13171;SDS011;6651;53.200;10.432;2023-05-10T13:25:45;6.63;;;6.03;;
13171;SDS011;6651;53.200;10.432;2023-05-10T13:28:11;5.97;;;5.38;;
13171;SDS011;6651;53.200;10.432;2023-05-10T13:30:37;5.95;;;5.43;;
13171;SDS011;6651;53.200;10.432;2023-05-10T13:33:03;5.85;;;5.30;;
13171;SDS011;6651;53.200;10.432;2023-05-10T13:35:30;5.47;;;4.97;;
13171;SDS011;6651;53.200;10.432;2023-05-10T13:37:56;5.28;;;4.78;;
13171;SDS011;6651;53.200;10.432;2023-05-10T13:40:22;4.55;;;4.15;;
13171;SDS011;6651;53.200;10.432;2023-05-10T13:42:48;5.40;;;4.10;;
13171;SDS011;6651;53.200;10.432;2023-05-10T13:45:14;4.30;;;3.90;;
13171;SDS011;6651;53.200;10.432;2023-05-10T13:47:41;5.47;;;4.32;;
13171;SDS011;6651;53.200;10.432;2023-05-10T13:50:07;5.05;;;3.80;;
13171;SDS011;6651;53.200;10.432;2023-05-10T13:52:33;4.55;;;4.15;;
13171;SDS011;6651;53.200;10.432;2023-05-10T13:54:59;4.90;;;4.40;;
13171;SDS011;6651;53.200;10.432;2023-05-10T13:57:25;5.05;;;4.57;;
13171;SDS011;6651;53.200;10.432;2023-05-10T13:59:51;4.60;;;4.20;;
13171;SDS011;6651;53.200;10.432;2023-05-10T14:02:18;4.35;;;3.95;;
13171;SDS011;6651;53.200;10.432;2023-05-10T14:04:44;4.78;;;4.35;;
13171;SDS011;6651;53.200;10.432;2023-05-10T14:07:10;3.72;;;3.42;;
13171;SDS011;6651;53.200;10.432;2023-05-10T14:09:36;3.97;;;3.67;;
13171;SDS011;6651;53.200;10.432;2023-05-10T14:12:02;5.05;;;3.78;;
13171;SDS011;6651;53.200;10.432;2023-05-10T14:14:28;4.13;;;3.72;;
13171;SDS011;6651;53.200;10.432;2023-05-10T14:16:54;3.67;;;3.38;;
13171;SDS011;6651;53.200;10.432;2023-05-10T14:19:20;3.95;;;3.65;;
13171;SDS011;6651;53.200;10.432;2023-05-10T14:21:46;3.92;;;3.50;;
13171;SDS011;6651;53.200;10.432;2023-05-10T14:24:12;3.60;;;3.30;;
13171;SDS011;6651;53.200;10.432;2023-05-10T14:26:39;3.50;;;3.17;;
13171;SDS011;6651;53.200;10.432;2023-05-10T14:29:05;3.90;;;3.58;;
13171;SDS011;6651;53.200;10.432;2023-05-10T14:31:31;4.40;;;3.70;;
13171;SDS011;6651;53.200;10.432;2023-05-10T14:33:57;3.40;;;3.10;;
13171;SDS011;6651;53.200;10.432;2023-05-10T14:36:24;3.30;;;3.00;;
13171;SDS011;6651;53.200;10.432;2023-05-10T14:38:50;3.80;;;3.40;;
13171;SDS011;6651;53.200;10.432;2023-05-10T14:41:17;3.40;;;3.10;;
13171;SDS011;6651;53.200;10.432;2023-05-10T14:43:43;3.70;;;3.40;;
13171;SDS011;6651;53.200;10.432;2023-05-10T14:46:09;3.83;;;3.35;;
13171;SDS011;6651;53.200;10.432;2023-05-10T14:48:36;3.60;;;3.30;;
13171;SDS011;6651;53.200;10.432;2023-05-10T14:51:02;3.83;;;3.50;;
13171;SDS011;6651;53.200;10.432;2023-05-10T14:53:30;3.60;;;3.30;;
13171;SDS011;6651;53.200;10.432;2023-05-10T14:55:57;4.45;;;2.97;;
13171;SDS011;6651;53.200;10.432;2023-05-10T14:58:25;3.75;;;3.05;;
13171;SDS011;6651;53.200;10.432;2023-05-10T15:00:51;3.60;;;3.25;;
13171;SDS011;6651;53.200;10.432;2023-05-10T15:03:17;3.30;;;3.00;;
13171;SDS011;6651;53.200;10.432;2023-05-10T15:05:43;3.22;;;2.92;;
13171;SDS011;6651;53.200;10.432;2023-05-10T15:08:09;4.25;;;3.08;;
13171;SDS011;6651;53.200;10.432;2023-05-10T15:10:35;3.20;;;2.90;;
13171;SDS011;6651;53.200;10.432;2023-05-10T15:13:03;4.18;;;3.00;;
13171;SDS011;6651;53.200;10.432;2023-05-10T15:15:29;3.03;;;2.70;;
13171;SDS011;6651;53.200;10.432;2023-05-10T15:17:55;3.35;;;3.05;;
13171;SDS011;6651;53.200;10.432;2023-05-10T15:20:21;3.72;;;2.70;;
13171;SDS011;6651;53.200;10.432;2023-05-10T15:22:47;3.30;;;3.00;;